createdAt,value
2022-12-08T00:01:31.184Z,2.02
2022-12-08T00:05:16.789Z,2.00
2022-12-08T00:12:00.499Z,1.94
2022-12-08T00:15:21.416Z,1.92
2022-12-08T00:18:28.473Z,1.90
2022-12-08T00:21:01.826Z,1.90
2022-12-08T00:23:34.047Z,1.94
2022-12-08T00:26:08.015Z,1.95
2022-12-08T00:33:03.276Z,1.91
2022-12-08T00:35:41.554Z,1.94
2022-12-08T00:39:04.750Z,1.96
2022-12-08T00:42:00.979Z,1.98
2022-12-08T00:44:33.232Z,2.01
2022-12-08T00:47:13.054Z,2.04
2022-12-08T00:49:45.803Z,2.06
2022-12-08T00:52:25.145Z,2.07
2022-12-08T00:59:30.464Z,2.05
2022-12-08T01:07:17.150Z,2.08
2022-12-08T01:09:52.932Z,2.04
2022-12-08T01:12:32.755Z,2.00
2022-12-08T01:15:06.249Z,1.93
2022-12-08T01:17:45.561Z,1.86
2022-12-08T01:20:18.017Z,1.84
2022-12-08T01:22:50.439Z,1.85
2022-12-08T01:25:29.511Z,1.86
2022-12-08T01:33:18.439Z,1.75
2022-12-08T01:35:50.744Z,1.73
2022-12-08T01:38:23.390Z,1.73
2022-12-08T01:41:02.710Z,1.74
2022-12-08T01:48:34.258Z,1.79
2022-12-08T01:51:08.085Z,1.76
2022-12-08T01:53:41.650Z,1.76
2022-12-08T02:01:26.291Z,1.76
2022-12-08T02:07:49.779Z,1.72
2022-12-08T02:15:15.638Z,1.70
2022-12-08T02:22:18.144Z,1.68
2022-12-08T02:39:18.521Z,1.73
2022-12-08T02:46:23.871Z,1.78
2022-12-08T02:54:01.588Z,1.81
2022-12-08T03:06:09.542Z,1.89
2022-12-08T03:17:52.277Z,1.88
2022-12-08T03:20:27.064Z,1.91
2022-12-08T03:28:21.431Z,1.96
2022-12-08T03:41:09.253Z,1.94
2022-12-08T03:43:41.520Z,1.91
2022-12-08T03:46:13.865Z,1.91
2022-12-08T03:54:24.156Z,1.92
2022-12-08T03:56:56.443Z,1.90
2022-12-08T03:59:54.288Z,1.89
2022-12-08T04:03:38.680Z,1.88
2022-12-08T04:06:11.529Z,1.85
2022-12-08T04:08:44.056Z,1.84
2022-12-08T04:16:30.902Z,1.76
2022-12-08T04:19:04.587Z,1.73
2022-12-08T04:21:43.922Z,1.72
2022-12-08T04:24:16.634Z,1.71
2022-12-08T04:26:55.801Z,1.70
2022-12-08T04:29:27.918Z,1.68
2022-12-08T04:32:47.219Z,1.69
2022-12-08T04:40:12.693Z,1.69
2022-12-08T04:42:51.273Z,1.66
2022-12-08T04:46:11.528Z,1.66
2022-12-08T04:57:48.029Z,1.55
2022-12-08T05:00:21.782Z,1.49
2022-12-08T05:29:52.841Z,1.34
2022-12-08T05:32:25.062Z,1.31
2022-12-08T05:34:57.316Z,1.29
2022-12-08T05:38:33.057Z,1.31
2022-12-08T05:41:14.632Z,1.32
2022-12-08T05:49:17.158Z,1.34
2022-12-08T05:51:55.817Z,1.35
2022-12-08T05:54:28.203Z,1.33
2022-12-08T05:57:06.837Z,1.31
2022-12-08T05:59:39.739Z,1.30
2022-12-08T06:02:12.134Z,1.29
2022-12-08T06:05:32.506Z,1.30
2022-12-08T06:08:05.062Z,1.30
2022-12-08T06:15:02.693Z,1.36
2022-12-08T06:17:37.506Z,1.36
2022-12-08T06:20:16.276Z,1.39
2022-12-08T06:22:48.788Z,1.39
2022-12-08T06:29:51.880Z,1.36
2022-12-08T06:32:27.399Z,1.35
2022-12-08T06:35:01.288Z,1.35
2022-12-08T06:46:28.414Z,1.27
2022-12-08T06:49:06.977Z,1.27
2022-12-08T06:51:39.355Z,1.27
2022-12-08T06:54:18.000Z,1.29
2022-12-08T06:56:50.463Z,1.32
2022-12-08T07:17:53.565Z,1.44
2022-12-08T07:21:25.167Z,1.47
2022-12-08T07:23:58.128Z,1.51
2022-12-08T07:26:37.824Z,1.55
2022-12-08T07:34:01.012Z,1.69
2022-12-08T07:36:34.767Z,1.74
2022-12-08T07:40:01.999Z,1.81
2022-12-08T07:42:34.553Z,1.92
2022-12-08T07:46:01.436Z,2.00
2022-12-08T07:48:33.784Z,2.04
2022-12-08T07:51:07.903Z,2.06
2022-12-08T07:53:42.840Z,2.08
2022-12-08T08:06:07.588Z,2.39
2022-12-08T08:08:39.928Z,2.52
2022-12-08T08:11:18.916Z,2.69
2022-12-08T08:14:10.806Z,2.92
2022-12-08T08:16:46.884Z,3.20
2022-12-08T08:19:19.280Z,3.42
2022-12-08T08:21:51.521Z,3.65
2022-12-08T08:28:53.935Z,4.12
2022-12-08T08:31:28.851Z,4.11
2022-12-08T08:38:31.852Z,4.25
2022-12-08T08:41:58.284Z,4.42
2022-12-08T08:44:34.274Z,4.97
2022-12-08T08:47:06.796Z,5.60
2022-12-08T08:49:46.861Z,6.54
2022-12-08T08:52:26.137Z,7.85
2022-12-08T08:54:58.323Z,9.34
2022-12-08T08:57:57.736Z,10.46
2022-12-08T09:00:30.091Z,11.15
2022-12-08T09:03:02.465Z,11.52
2022-12-08T09:05:42.453Z,11.54
2022-12-08T09:08:14.847Z,12.00
2022-12-08T09:10:53.971Z,12.43
2022-12-08T09:13:26.099Z,12.82
2022-12-08T09:16:58.703Z,13.26
2022-12-08T09:19:31.869Z,13.00
2022-12-08T09:26:34.037Z,12.82
2022-12-08T09:29:14.901Z,13.25
2022-12-08T09:31:47.337Z,13.12
2022-12-08T09:34:19.686Z,12.83
2022-12-08T09:37:02.770Z,12.98
2022-12-08T09:39:35.735Z,13.76
2022-12-08T09:42:34.100Z,14.20
2022-12-08T09:50:02.179Z,14.95
2022-12-08T09:53:01.577Z,14.94
2022-12-08T10:08:47.388Z,12.90
2022-12-08T10:11:54.558Z,12.09
2022-12-08T10:18:41.517Z,11.99
2022-12-08T10:22:01.221Z,11.87
2022-12-08T10:28:30.436Z,11.63
2022-12-08T10:35:11.094Z,12.15
2022-12-08T10:41:18.774Z,12.22
2022-12-08T10:47:17.020Z,12.13
2022-12-08T10:49:49.326Z,12.93
2022-12-08T11:05:38.034Z,14.25
2022-12-08T11:08:18.990Z,14.02
2022-12-08T11:10:51.506Z,13.32
2022-12-08T11:22:40.952Z,11.92
2022-12-08T11:30:07.217Z,9.97
2022-12-08T11:33:51.572Z,9.19
2022-12-08T11:36:27.005Z,8.88
2022-12-08T11:39:54.829Z,8.54
2022-12-08T11:56:12.946Z,7.17
2022-12-08T12:03:32.538Z,6.61
2022-12-08T12:11:11.471Z,6.17
2022-12-08T12:26:32.527Z,5.38
2022-12-08T12:29:29.622Z,5.25
2022-12-08T12:32:05.112Z,5.11
2022-12-08T12:35:48.345Z,5.01
2022-12-08T12:45:44.071Z,4.76
2022-12-08T12:49:06.771Z,4.71
2022-12-08T12:56:03.968Z,4.51
2022-12-08T12:58:46.510Z,4.42
2022-12-08T13:02:16.455Z,4.32
2022-12-08T13:09:48.108Z,4.15
2022-12-08T13:21:40.098Z,3.96
2022-12-08T13:29:16.766Z,3.95
2022-12-08T13:31:57.159Z,3.95
2022-12-08T13:34:39.367Z,3.89
2022-12-08T13:38:20.829Z,3.84
2022-12-08T13:41:02.620Z,3.82
2022-12-08T14:00:35.997Z,3.56
2022-12-08T14:07:42.568Z,3.49
2022-12-08T14:19:58.941Z,3.41
2022-12-08T14:26:56.788Z,3.36
2022-12-08T14:34:18.610Z,3.34
2022-12-08T14:36:50.987Z,3.31
2022-12-08T14:43:30.170Z,3.27
2022-12-08T14:46:05.295Z,3.26
2022-12-08T14:48:55.448Z,3.26
2022-12-08T14:51:32.814Z,3.25
2022-12-08T14:54:16.003Z,3.23
2022-12-08T15:13:58.313Z,3.15
2022-12-08T15:29:49.522Z,3.18
2022-12-08T15:32:28.833Z,3.15
2022-12-08T15:35:01.157Z,3.14
2022-12-08T15:37:40.677Z,3.17
2022-12-08T15:44:44.720Z,3.20
2022-12-08T15:48:30.069Z,3.20
2022-12-08T15:51:02.395Z,3.19
2022-12-08T16:07:33.083Z,3.16
2022-12-08T16:25:41.228Z,3.03
2022-12-08T16:32:28.192Z,2.98
2022-12-08T16:35:49.467Z,2.97
2022-12-08T16:43:13.313Z,2.94
2022-12-08T16:55:08.117Z,2.84
2022-12-08T16:58:30.869Z,2.84
2022-12-08T17:05:26.073Z,2.84
2022-12-08T17:08:04.790Z,2.83
2022-12-08T17:10:39.496Z,2.80
2022-12-08T17:14:07.896Z,2.76
2022-12-08T17:20:49.590Z,2.73
2022-12-08T17:24:21.979Z,2.69
2022-12-08T17:27:04.200Z,2.67
2022-12-08T17:30:27.754Z,2.65
2022-12-08T17:33:06.757Z,2.64
2022-12-08T17:35:38.876Z,2.64
2022-12-08T17:38:18.425Z,2.61
2022-12-08T17:40:56.932Z,2.60
2022-12-08T17:44:28.223Z,2.58
2022-12-08T17:56:01.711Z,2.48
2022-12-08T17:58:40.697Z,2.49
2022-12-08T18:01:13.885Z,2.51
2022-12-08T18:03:52.960Z,2.52
2022-12-08T18:06:29.609Z,2.53
2022-12-08T18:10:02.054Z,2.54
2022-12-08T18:31:18.938Z,2.51
2022-12-08T18:34:33.947Z,2.49
2022-12-08T18:37:47.610Z,2.50
2022-12-08T18:40:20.633Z,2.51
2022-12-08T18:43:00.297Z,2.56
2022-12-08T18:45:33.871Z,2.59
2022-12-08T18:48:12.696Z,2.62
2022-12-08T18:55:38.207Z,2.60
2022-12-08T18:58:18.820Z,2.60
2022-12-08T19:00:51.161Z,2.60
2022-12-08T19:03:30.928Z,2.64
2022-12-08T19:06:30.130Z,2.65
2022-12-08T19:14:40.879Z,2.71
2022-12-08T19:21:46.526Z,2.71
2022-12-08T19:25:08.833Z,2.69
2022-12-08T19:27:48.257Z,2.66
2022-12-08T19:30:20.560Z,2.62
2022-12-08T19:32:58.992Z,2.62
2022-12-08T19:35:33.287Z,2.65
2022-12-08T19:38:12.998Z,2.65
2022-12-08T19:45:40.531Z,2.55
2022-12-08T19:49:07.804Z,2.52
2022-12-08T19:56:31.508Z,2.51
2022-12-08T19:59:10.164Z,2.55
2022-12-08T20:01:42.402Z,2.60
2022-12-08T20:04:21.890Z,2.61
2022-12-08T20:06:55.882Z,2.63
2022-12-08T20:09:36.000Z,2.64
2022-12-08T20:12:09.553Z,2.67
2022-12-08T20:14:48.188Z,2.68
2022-12-08T20:17:20.596Z,2.68
2022-12-08T20:20:02.593Z,2.67
2022-12-08T20:23:27.948Z,2.67
2022-12-08T20:26:09.882Z,2.69
2022-12-08T20:33:24.983Z,2.66
2022-12-08T20:36:47.199Z,2.60
2022-12-08T20:39:25.951Z,2.57
2022-12-08T20:42:00.226Z,2.56
2022-12-08T20:44:53.018Z,2.52
2022-12-08T20:47:25.817Z,2.51
2022-12-08T20:50:06.560Z,2.52
2022-12-08T20:52:40.623Z,2.52
2022-12-08T20:55:23.934Z,2.48
2022-12-08T21:03:36.340Z,2.40
2022-12-08T21:06:16.072Z,2.38
2022-12-08T21:22:40.310Z,2.25
2022-12-08T21:25:11.415Z,2.22
2022-12-08T21:27:53.194Z,2.20
2022-12-08T21:31:17.365Z,2.16
2022-12-08T21:34:46.214Z,2.12
2022-12-08T21:37:18.934Z,2.12
2022-12-08T21:39:58.115Z,2.12
2022-12-08T21:46:59.356Z,2.18
2022-12-08T21:49:38.212Z,2.17
2022-12-08T21:52:10.702Z,2.14
2022-12-08T21:55:19.151Z,2.16
2022-12-08T22:03:33.202Z,2.23
2022-12-08T22:06:25.811Z,2.25
2022-12-08T22:09:05.696Z,2.25
2022-12-08T22:11:38.223Z,2.25
2022-12-08T22:14:17.118Z,2.30
2022-12-08T22:16:50.218Z,2.29
2022-12-08T22:19:29.059Z,2.27
2022-12-08T22:22:01.597Z,2.29
2022-12-08T22:25:00.404Z,2.36
2022-12-08T22:33:13.767Z,2.40
2022-12-08T22:36:14.290Z,2.40
2022-12-08T22:43:51.806Z,2.33
2022-12-08T22:46:26.536Z,2.28
2022-12-08T22:50:22.775Z,2.25
2022-12-08T22:52:55.030Z,2.24
2022-12-08T22:56:09.708Z,2.23
2022-12-08T23:03:33.355Z,2.18
2022-12-08T23:33:44.776Z,2.19
2022-12-08T23:36:19.028Z,2.19
2022-12-08T23:43:01.214Z,2.18
2022-12-08T23:45:33.830Z,2.20
2022-12-08T23:48:39.178Z,2.21
2022-12-08T23:51:12.117Z,2.23
2022-12-08T23:53:51.371Z,2.27
2022-12-08T23:56:28.634Z,2.27
2022-12-08T23:59:59.301Z,2.24
